sensor_id;sensor_type;location;lat;lon;timestamp;P1;durP1;ratioP1;P2;durP2;ratioP2
47025;SDS011;32783;51.756;-2.556;2023-03-26T00:00:28;3.15;;;1.98;;
47025;SDS011;32783;51.756;-2.556;2023-03-26T00:02:53;2.70;;;1.70;;
47025;SDS011;32783;51.756;-2.556;2023-03-26T00:05:19;2.28;;;1.83;;
47025;SDS011;32783;51.756;-2.556;2023-03-26T00:07:45;2.45;;;1.60;;
47025;SDS011;32783;51.756;-2.556;2023-03-26T00:10:11;3.38;;;1.73;;
47025;SDS011;32783;51.756;-2.556;2023-03-26T00:12:36;2.38;;;1.88;;
47025;SDS011;32783;51.756;-2.556;2023-03-26T00:15:02;1.92;;;1.40;;
47025;SDS011;32783;51.756;-2.556;2023-03-26T00:17:28;2.30;;;1.75;;
47025;SDS011;32783;51.756;-2.556;2023-03-26T00:19:54;3.03;;;1.75;;
47025;SDS011;32783;51.756;-2.556;2023-03-26T00:22:21;2.30;;;2.00;;
47025;SDS011;32783;51.756;-2.556;2023-03-26T00:24:47;2.72;;;1.60;;
47025;SDS011;32783;51.756;-2.556;2023-03-26T00:27:14;2.50;;;1.83;;
47025;SDS011;32783;51.756;-2.556;2023-03-26T00:29:40;1.52;;;1.00;;
47025;SDS011;32783;51.756;-2.556;2023-03-26T00:32:05;2.75;;;1.60;;
47025;SDS011;32783;51.756;-2.556;2023-03-26T00:34:31;2.45;;;1.60;;
47025;SDS011;32783;51.756;-2.556;2023-03-26T00:36:58;2.38;;;1.50;;
47025;SDS011;32783;51.756;-2.556;2023-03-26T00:39:26;1.45;;;1.15;;
47025;SDS011;32783;51.756;-2.556;2023-03-26T00:41:53;2.50;;;1.30;;
47025;SDS011;32783;51.756;-2.556;2023-03-26T00:44:19;3.95;;;1.90;;
47025;SDS011;32783;51.756;-2.556;2023-03-26T00:46:44;2.38;;;1.60;;
47025;SDS011;32783;51.756;-2.556;2023-03-26T00:49:10;2.05;;;1.40;;
47025;SDS011;32783;51.756;-2.556;2023-03-26T00:51:38;2.75;;;1.63;;
47025;SDS011;32783;51.756;-2.556;2023-03-26T00:54:04;2.33;;;1.40;;
47025;SDS011;32783;51.756;-2.556;2023-03-26T00:56:31;1.98;;;1.42;;
47025;SDS011;32783;51.756;-2.556;2023-03-26T00:58:57;2.78;;;1.45;;
47025;SDS011;32783;51.756;-2.556;2023-03-26T01:01:24;2.13;;;1.20;;
47025;SDS011;32783;51.756;-2.556;2023-03-26T01:03:52;2.10;;;1.40;;
47025;SDS011;32783;51.756;-2.556;2023-03-26T01:06:29;2.55;;;1.77;;
47025;SDS011;32783;51.756;-2.556;2023-03-26T01:09:05;2.15;;;1.50;;
47025;SDS011;32783;51.756;-2.556;2023-03-26T01:11:52;1.98;;;1.35;;
47025;SDS011;32783;51.756;-2.556;2023-03-26T01:14:19;1.60;;;1.10;;
47025;SDS011;32783;51.756;-2.556;2023-03-26T01:17:00;2.58;;;1.30;;
47025;SDS011;32783;51.756;-2.556;2023-03-26T01:19:38;2.28;;;1.40;;
47025;SDS011;32783;51.756;-2.556;2023-03-26T01:22:07;3.73;;;1.97;;
47025;SDS011;32783;51.756;-2.556;2023-03-26T01:24:39;2.08;;;1.40;;
47025;SDS011;32783;51.756;-2.556;2023-03-26T01:29:52;1.98;;;1.13;;
47025;SDS011;32783;51.756;-2.556;2023-03-26T01:35:13;1.70;;;1.10;;
47025;SDS011;32783;51.756;-2.556;2023-03-26T01:40:36;2.67;;;1.42;;
47025;SDS011;32783;51.756;-2.556;2023-03-26T01:46:17;2.40;;;1.38;;
47025;SDS011;32783;51.756;-2.556;2023-03-26T01:48:44;1.75;;;0.95;;
47025;SDS011;32783;51.756;-2.556;2023-03-26T01:51:12;1.85;;;1.00;;
47025;SDS011;32783;51.756;-2.556;2023-03-26T01:53:42;1.13;;;0.90;;
47025;SDS011;32783;51.756;-2.556;2023-03-26T01:56:17;1.77;;;1.40;;
47025;SDS011;32783;51.756;-2.556;2023-03-26T02:02:08;2.08;;;1.30;;
47025;SDS011;32783;51.756;-2.556;2023-03-26T02:04:51;1.27;;;0.90;;
47025;SDS011;32783;51.756;-2.556;2023-03-26T02:07:42;2.25;;;0.90;;
47025;SDS011;32783;51.756;-2.556;2023-03-26T02:12:58;1.20;;;1.10;;
47025;SDS011;32783;51.756;-2.556;2023-03-26T02:15:24;1.42;;;0.80;;
47025;SDS011;32783;51.756;-2.556;2023-03-26T02:17:50;2.50;;;1.40;;
47025;SDS011;32783;51.756;-2.556;2023-03-26T02:20:17;1.13;;;0.90;;
47025;SDS011;32783;51.756;-2.556;2023-03-26T02:22:43;1.52;;;1.00;;
47025;SDS011;32783;51.756;-2.556;2023-03-26T02:25:15;1.65;;;1.02;;
47025;SDS011;32783;51.756;-2.556;2023-03-26T02:27:43;1.88;;;0.93;;
47025;SDS011;32783;51.756;-2.556;2023-03-26T02:30:10;1.05;;;0.80;;
47025;SDS011;32783;51.756;-2.556;2023-03-26T02:32:38;1.60;;;0.95;;
47025;SDS011;32783;51.756;-2.556;2023-03-26T02:35:03;1.63;;;0.70;;
47025;SDS011;32783;51.756;-2.556;2023-03-26T02:37:30;1.25;;;0.88;;
47025;SDS011;32783;51.756;-2.556;2023-03-26T02:39:58;1.02;;;0.68;;
47025;SDS011;32783;51.756;-2.556;2023-03-26T02:42:25;1.15;;;0.90;;
47025;SDS011;32783;51.756;-2.556;2023-03-26T02:44:50;1.10;;;0.80;;
47025;SDS011;32783;51.756;-2.556;2023-03-26T02:47:16;1.10;;;0.52;;
47025;SDS011;32783;51.756;-2.556;2023-03-26T02:49:41;1.35;;;0.90;;
47025;SDS011;32783;51.756;-2.556;2023-03-26T02:52:07;1.25;;;0.95;;
47025;SDS011;32783;51.756;-2.556;2023-03-26T02:54:33;1.45;;;0.70;;
47025;SDS011;32783;51.756;-2.556;2023-03-26T02:56:59;0.80;;;0.60;;
47025;SDS011;32783;51.756;-2.556;2023-03-26T02:59:25;0.90;;;0.60;;
47025;SDS011;32783;51.756;-2.556;2023-03-26T03:01:51;1.05;;;0.65;;
47025;SDS011;32783;51.756;-2.556;2023-03-26T03:04:16;1.13;;;0.70;;
47025;SDS011;32783;51.756;-2.556;2023-03-26T03:06:42;0.80;;;0.47;;
47025;SDS011;32783;51.756;-2.556;2023-03-26T03:09:08;1.75;;;0.80;;
47025;SDS011;32783;51.756;-2.556;2023-03-26T03:11:34;1.52;;;0.77;;
47025;SDS011;32783;51.756;-2.556;2023-03-26T03:14:01;1.02;;;0.70;;
47025;SDS011;32783;51.756;-2.556;2023-03-26T03:16:27;1.20;;;0.70;;
47025;SDS011;32783;51.756;-2.556;2023-03-26T03:18:52;1.00;;;0.70;;
47025;SDS011;32783;51.756;-2.556;2023-03-26T03:21:18;0.60;;;0.60;;
47025;SDS011;32783;51.756;-2.556;2023-03-26T03:23:45;1.00;;;0.65;;
47025;SDS011;32783;51.756;-2.556;2023-03-26T03:26:14;0.70;;;0.50;;
47025;SDS011;32783;51.756;-2.556;2023-03-26T03:28:41;0.63;;;0.40;;
47025;SDS011;32783;51.756;-2.556;2023-03-26T03:31:09;1.08;;;0.63;;
47025;SDS011;32783;51.756;-2.556;2023-03-26T03:33:34;0.80;;;0.45;;
47025;SDS011;32783;51.756;-2.556;2023-03-26T03:36:00;1.40;;;0.88;;
47025;SDS011;32783;51.756;-2.556;2023-03-26T03:38:25;0.93;;;0.50;;
47025;SDS011;32783;51.756;-2.556;2023-03-26T03:40:51;0.95;;;0.57;;
47025;SDS011;32783;51.756;-2.556;2023-03-26T03:43:18;1.00;;;0.55;;
47025;SDS011;32783;51.756;-2.556;2023-03-26T03:45:44;0.80;;;0.47;;
47025;SDS011;32783;51.756;-2.556;2023-03-26T03:48:09;1.30;;;0.50;;
47025;SDS011;32783;51.756;-2.556;2023-03-26T03:50:35;1.00;;;0.65;;
47025;SDS011;32783;51.756;-2.556;2023-03-26T03:53:01;0.68;;;0.50;;
47025;SDS011;32783;51.756;-2.556;2023-03-26T03:55:26;0.82;;;0.47;;
47025;SDS011;32783;51.756;-2.556;2023-03-26T03:57:52;0.90;;;0.50;;
47025;SDS011;32783;51.756;-2.556;2023-03-26T04:00:18;1.02;;;0.65;;
47025;SDS011;32783;51.756;-2.556;2023-03-26T04:02:44;0.88;;;0.50;;
47025;SDS011;32783;51.756;-2.556;2023-03-26T04:05:10;0.60;;;0.52;;
47025;SDS011;32783;51.756;-2.556;2023-03-26T04:07:36;0.55;;;0.40;;
47025;SDS011;32783;51.756;-2.556;2023-03-26T04:10:03;0.52;;;0.40;;
47025;SDS011;32783;51.756;-2.556;2023-03-26T04:12:29;0.50;;;0.50;;
47025;SDS011;32783;51.756;-2.556;2023-03-26T04:14:55;0.57;;;0.40;;
47025;SDS011;32783;51.756;-2.556;2023-03-26T04:17:21;0.30;;;0.30;;
47025;SDS011;32783;51.756;-2.556;2023-03-26T04:19:47;0.52;;;0.40;;
47025;SDS011;32783;51.756;-2.556;2023-03-26T04:22:14;0.50;;;0.40;;
47025;SDS011;32783;51.756;-2.556;2023-03-26T04:24:42;0.67;;;0.60;;
47025;SDS011;32783;51.756;-2.556;2023-03-26T04:27:11;0.82;;;0.50;;
47025;SDS011;32783;51.756;-2.556;2023-03-26T04:29:40;0.52;;;0.30;;
47025;SDS011;32783;51.756;-2.556;2023-03-26T04:32:08;0.50;;;0.40;;
47025;SDS011;32783;51.756;-2.556;2023-03-26T04:34:36;0.63;;;0.40;;
47025;SDS011;32783;51.756;-2.556;2023-03-26T04:37:02;0.60;;;0.38;;
47025;SDS011;32783;51.756;-2.556;2023-03-26T04:39:29;0.50;;;0.32;;
47025;SDS011;32783;51.756;-2.556;2023-03-26T04:41:58;0.65;;;0.50;;
47025;SDS011;32783;51.756;-2.556;2023-03-26T04:44:24;0.50;;;0.50;;
47025;SDS011;32783;51.756;-2.556;2023-03-26T04:46:50;0.40;;;0.20;;
47025;SDS011;32783;51.756;-2.556;2023-03-26T04:49:19;0.50;;;0.30;;
47025;SDS011;32783;51.756;-2.556;2023-03-26T04:51:45;0.68;;;0.25;;
47025;SDS011;32783;51.756;-2.556;2023-03-26T04:54:12;0.35;;;0.30;;
47025;SDS011;32783;51.756;-2.556;2023-03-26T04:59:10;0.38;;;0.30;;
47025;SDS011;32783;51.756;-2.556;2023-03-26T05:01:41;0.40;;;0.40;;
47025;SDS011;32783;51.756;-2.556;2023-03-26T05:04:10;0.73;;;0.40;;
47025;SDS011;32783;51.756;-2.556;2023-03-26T05:09:07;0.85;;;0.50;;
47025;SDS011;32783;51.756;-2.556;2023-03-26T05:11:34;0.70;;;0.30;;
47025;SDS011;32783;51.756;-2.556;2023-03-26T05:14:00;0.65;;;0.38;;
47025;SDS011;32783;51.756;-2.556;2023-03-26T05:16:25;0.60;;;0.40;;
47025;SDS011;32783;51.756;-2.556;2023-03-26T05:18:52;0.40;;;0.22;;
47025;SDS011;32783;51.756;-2.556;2023-03-26T05:21:18;0.82;;;0.47;;
47025;SDS011;32783;51.756;-2.556;2023-03-26T05:23:44;0.25;;;0.20;;
47025;SDS011;32783;51.756;-2.556;2023-03-26T05:26:10;0.70;;;0.30;;
47025;SDS011;32783;51.756;-2.556;2023-03-26T05:28:36;0.30;;;0.20;;
47025;SDS011;32783;51.756;-2.556;2023-03-26T05:31:01;0.65;;;0.63;;
47025;SDS011;32783;51.756;-2.556;2023-03-26T05:33:27;0.30;;;0.22;;
47025;SDS011;32783;51.756;-2.556;2023-03-26T05:36:03;0.50;;;0.45;;
47025;SDS011;32783;51.756;-2.556;2023-03-26T05:38:31;0.70;;;0.20;;
47025;SDS011;32783;51.756;-2.556;2023-03-26T05:41:04;0.30;;;0.22;;
47025;SDS011;32783;51.756;-2.556;2023-03-26T05:43:30;0.30;;;0.20;;
47025;SDS011;32783;51.756;-2.556;2023-03-26T05:45:56;0.30;;;0.30;;
47025;SDS011;32783;51.756;-2.556;2023-03-26T05:48:22;0.55;;;0.25;;
47025;SDS011;32783;51.756;-2.556;2023-03-26T05:50:52;0.55;;;0.45;;
47025;SDS011;32783;51.756;-2.556;2023-03-26T05:53:19;0.17;;;0.17;;
47025;SDS011;32783;51.756;-2.556;2023-03-26T05:55:46;1.45;;;0.30;;
47025;SDS011;32783;51.756;-2.556;2023-03-26T05:58:25;0.30;;;0.22;;
47025;SDS011;32783;51.756;-2.556;2023-03-26T06:01:02;0.50;;;0.28;;
47025;SDS011;32783;51.756;-2.556;2023-03-26T06:03:36;0.17;;;0.15;;
47025;SDS011;32783;51.756;-2.556;2023-03-26T06:06:05;0.20;;;0.20;;
47025;SDS011;32783;51.756;-2.556;2023-03-26T06:08:31;0.20;;;0.20;;
47025;SDS011;32783;51.756;-2.556;2023-03-26T06:10:58;0.30;;;0.13;;
47025;SDS011;32783;51.756;-2.556;2023-03-26T06:13:24;0.35;;;0.15;;
47025;SDS011;32783;51.756;-2.556;2023-03-26T06:15:50;0.68;;;0.28;;
47025;SDS011;32783;51.756;-2.556;2023-03-26T06:18:15;0.40;;;0.20;;
47025;SDS011;32783;51.756;-2.556;2023-03-26T06:20:41;0.20;;;0.20;;
47025;SDS011;32783;51.756;-2.556;2023-03-26T06:23:07;0.20;;;0.20;;
47025;SDS011;32783;51.756;-2.556;2023-03-26T06:25:33;0.20;;;0.20;;
47025;SDS011;32783;51.756;-2.556;2023-03-26T06:27:58;0.30;;;0.20;;
47025;SDS011;32783;51.756;-2.556;2023-03-26T06:30:24;0.13;;;0.10;;
47025;SDS011;32783;51.756;-2.556;2023-03-26T06:32:49;0.30;;;0.20;;
47025;SDS011;32783;51.756;-2.556;2023-03-26T06:35:14;0.70;;;0.20;;
47025;SDS011;32783;51.756;-2.556;2023-03-26T06:37:40;0.10;;;0.10;;
47025;SDS011;32783;51.756;-2.556;2023-03-26T06:40:06;0.25;;;0.20;;
47025;SDS011;32783;51.756;-2.556;2023-03-26T06:42:32;0.40;;;0.25;;
47025;SDS011;32783;51.756;-2.556;2023-03-26T06:44:58;0.20;;;0.20;;
47025;SDS011;32783;51.756;-2.556;2023-03-26T06:47:23;0.40;;;0.40;;
47025;SDS011;32783;51.756;-2.556;2023-03-26T06:49:49;0.20;;;0.10;;
47025;SDS011;32783;51.756;-2.556;2023-03-26T06:52:14;0.22;;;0.20;;
47025;SDS011;32783;51.756;-2.556;2023-03-26T06:54:39;0.20;;;0.10;;
47025;SDS011;32783;51.756;-2.556;2023-03-26T06:57:05;0.20;;;0.17;;
47025;SDS011;32783;51.756;-2.556;2023-03-26T06:59:30;0.30;;;0.10;;
47025;SDS011;32783;51.756;-2.556;2023-03-26T07:01:56;0.35;;;0.20;;
47025;SDS011;32783;51.756;-2.556;2023-03-26T07:04:21;0.25;;;0.20;;
47025;SDS011;32783;51.756;-2.556;2023-03-26T07:06:47;0.20;;;0.20;;
47025;SDS011;32783;51.756;-2.556;2023-03-26T07:09:12;0.15;;;0.15;;
47025;SDS011;32783;51.756;-2.556;2023-03-26T07:11:37;0.20;;;0.10;;
47025;SDS011;32783;51.756;-2.556;2023-03-26T07:14:03;0.17;;;0.17;;
47025;SDS011;32783;51.756;-2.556;2023-03-26T07:16:28;0.05;;;0.05;;
47025;SDS011;32783;51.756;-2.556;2023-03-26T07:18:54;0.10;;;0.10;;
47025;SDS011;32783;51.756;-2.556;2023-03-26T07:21:20;0.10;;;0.10;;
47025;SDS011;32783;51.756;-2.556;2023-03-26T07:23:46;0.10;;;0.10;;
47025;SDS011;32783;51.756;-2.556;2023-03-26T07:32:00;0.25;;;0.15;;
47025;SDS011;32783;51.756;-2.556;2023-03-26T07:37:04;0.10;;;0.00;;
47025;SDS011;32783;51.756;-2.556;2023-03-26T07:39:51;0.38;;;0.30;;
47025;SDS011;32783;51.756;-2.556;2023-03-26T07:42:25;0.38;;;0.13;;
47025;SDS011;32783;51.756;-2.556;2023-03-26T07:47:51;0.10;;;0.10;;
47025;SDS011;32783;51.756;-2.556;2023-03-26T07:50:20;0.30;;;0.17;;
47025;SDS011;32783;51.756;-2.556;2023-03-26T07:52:47;0.00;;;0.00;;
47025;SDS011;32783;51.756;-2.556;2023-03-26T07:55:13;0.00;;;0.00;;
47025;SDS011;32783;51.756;-2.556;2023-03-26T07:57:43;0.10;;;0.00;;
47025;SDS011;32783;51.756;-2.556;2023-03-26T08:06:22;0.15;;;0.10;;
47025;SDS011;32783;51.756;-2.556;2023-03-26T08:09:10;0.10;;;0.10;;
47025;SDS011;32783;51.756;-2.556;2023-03-26T08:11:57;0.10;;;0.10;;
47025;SDS011;32783;51.756;-2.556;2023-03-26T08:14:32;0.30;;;0.10;;
47025;SDS011;32783;51.756;-2.556;2023-03-26T08:22:35;0.75;;;0.40;;
47025;SDS011;32783;51.756;-2.556;2023-03-26T08:30:47;0.25;;;0.15;;
47025;SDS011;32783;51.756;-2.556;2023-03-26T08:33:17;0.25;;;0.17;;
47025;SDS011;32783;51.756;-2.556;2023-03-26T08:35:46;0.10;;;0.10;;
47025;SDS011;32783;51.756;-2.556;2023-03-26T08:38:13;0.15;;;0.10;;
47025;SDS011;32783;51.756;-2.556;2023-03-26T08:46:27;0.20;;;0.10;;
47025;SDS011;32783;51.756;-2.556;2023-03-26T09:22:41;0.28;;;0.20;;
47025;SDS011;32783;51.756;-2.556;2023-03-26T09:30:43;0.10;;;0.10;;
47025;SDS011;32783;51.756;-2.556;2023-03-26T09:33:31;0.20;;;0.10;;
47025;SDS011;32783;51.756;-2.556;2023-03-26T09:42:08;0.35;;;0.20;;
47025;SDS011;32783;51.756;-2.556;2023-03-26T09:50:27;0.20;;;0.10;;
47025;SDS011;32783;51.756;-2.556;2023-03-26T09:58:56;0.10;;;0.10;;
47025;SDS011;32783;51.756;-2.556;2023-03-26T10:10:28;0.30;;;0.10;;
47025;SDS011;32783;51.756;-2.556;2023-03-26T10:13:18;0.20;;;0.20;;
47025;SDS011;32783;51.756;-2.556;2023-03-26T10:18:32;0.20;;;0.20;;
47025;SDS011;32783;51.756;-2.556;2023-03-26T10:24:08;0.22;;;0.22;;
47025;SDS011;32783;51.756;-2.556;2023-03-26T10:26:53;0.28;;;0.20;;
47025;SDS011;32783;51.756;-2.556;2023-03-26T10:29:52;0.20;;;0.17;;
47025;SDS011;32783;51.756;-2.556;2023-03-26T10:35:05;0.20;;;0.20;;
47025;SDS011;32783;51.756;-2.556;2023-03-26T10:53:54;0.45;;;0.20;;
47025;SDS011;32783;51.756;-2.556;2023-03-26T10:59:00;0.10;;;0.10;;
47025;SDS011;32783;51.756;-2.556;2023-03-26T11:20:48;0.35;;;0.10;;
47025;SDS011;32783;51.756;-2.556;2023-03-26T11:34:15;0.40;;;0.13;;
47025;SDS011;32783;51.756;-2.556;2023-03-26T11:36:47;0.25;;;0.20;;
47025;SDS011;32783;51.756;-2.556;2023-03-26T11:39:20;0.35;;;0.30;;
47025;SDS011;32783;51.756;-2.556;2023-03-26T11:41:48;0.40;;;0.10;;
47025;SDS011;32783;51.756;-2.556;2023-03-26T11:44:23;0.52;;;0.50;;
47025;SDS011;32783;51.756;-2.556;2023-03-26T11:46:57;0.60;;;0.20;;
47025;SDS011;32783;51.756;-2.556;2023-03-26T11:49:25;0.50;;;0.20;;
47025;SDS011;32783;51.756;-2.556;2023-03-26T11:51:52;0.20;;;0.10;;
47025;SDS011;32783;51.756;-2.556;2023-03-26T11:54:18;0.30;;;0.20;;
47025;SDS011;32783;51.756;-2.556;2023-03-26T11:56:49;0.28;;;0.20;;
47025;SDS011;32783;51.756;-2.556;2023-03-26T11:59:22;0.60;;;0.30;;
47025;SDS011;32783;51.756;-2.556;2023-03-26T12:01:51;0.50;;;0.20;;
47025;SDS011;32783;51.756;-2.556;2023-03-26T12:04:26;0.20;;;0.10;;
47025;SDS011;32783;51.756;-2.556;2023-03-26T12:09:33;0.30;;;0.30;;
47025;SDS011;32783;51.756;-2.556;2023-03-26T12:11:59;0.30;;;0.20;;
47025;SDS011;32783;51.756;-2.556;2023-03-26T12:14:29;0.57;;;0.15;;
47025;SDS011;32783;51.756;-2.556;2023-03-26T12:17:00;0.30;;;0.20;;
47025;SDS011;32783;51.756;-2.556;2023-03-26T12:19:40;0.40;;;0.40;;
47025;SDS011;32783;51.756;-2.556;2023-03-26T12:25:15;0.98;;;0.38;;
47025;SDS011;32783;51.756;-2.556;2023-03-26T12:27:51;0.30;;;0.20;;
47025;SDS011;32783;51.756;-2.556;2023-03-26T12:30:29;0.20;;;0.20;;
47025;SDS011;32783;51.756;-2.556;2023-03-26T12:33:00;0.75;;;0.30;;
47025;SDS011;32783;51.756;-2.556;2023-03-26T12:35:28;0.77;;;0.13;;
47025;SDS011;32783;51.756;-2.556;2023-03-26T12:38:11;1.45;;;0.68;;
47025;SDS011;32783;51.756;-2.556;2023-03-26T12:40:37;0.50;;;0.30;;
47025;SDS011;32783;51.756;-2.556;2023-03-26T12:43:20;0.47;;;0.40;;
47025;SDS011;32783;51.756;-2.556;2023-03-26T12:45:49;0.35;;;0.20;;
47025;SDS011;32783;51.756;-2.556;2023-03-26T12:48:16;0.10;;;0.10;;
47025;SDS011;32783;51.756;-2.556;2023-03-26T12:56:19;0.90;;;0.30;;
47025;SDS011;32783;51.756;-2.556;2023-03-26T12:58:51;0.15;;;0.15;;
47025;SDS011;32783;51.756;-2.556;2023-03-26T13:01:29;0.43;;;0.20;;
47025;SDS011;32783;51.756;-2.556;2023-03-26T13:12:52;1.10;;;0.40;;
47025;SDS011;32783;51.756;-2.556;2023-03-26T13:39:29;0.60;;;0.40;;
47025;SDS011;32783;51.756;-2.556;2023-03-26T13:42:05;0.85;;;0.38;;
47025;SDS011;32783;51.756;-2.556;2023-03-26T13:44:47;0.75;;;0.52;;
47025;SDS011;32783;51.756;-2.556;2023-03-26T13:47:16;1.58;;;0.30;;
47025;SDS011;32783;51.756;-2.556;2023-03-26T13:49:48;0.57;;;0.35;;
47025;SDS011;32783;51.756;-2.556;2023-03-26T13:52:23;0.85;;;0.52;;
47025;SDS011;32783;51.756;-2.556;2023-03-26T14:02:43;0.85;;;0.50;;
47025;SDS011;32783;51.756;-2.556;2023-03-26T14:05:32;0.52;;;0.32;;
47025;SDS011;32783;51.756;-2.556;2023-03-26T14:10:34;0.50;;;0.30;;
47025;SDS011;32783;51.756;-2.556;2023-03-26T14:13:18;0.98;;;0.63;;
47025;SDS011;32783;51.756;-2.556;2023-03-26T14:15:56;0.98;;;0.60;;
47025;SDS011;32783;51.756;-2.556;2023-03-26T14:18:29;1.23;;;0.60;;
47025;SDS011;32783;51.756;-2.556;2023-03-26T14:23:57;0.68;;;0.30;;
47025;SDS011;32783;51.756;-2.556;2023-03-26T14:32:12;1.05;;;0.57;;
47025;SDS011;32783;51.756;-2.556;2023-03-26T14:40:28;1.05;;;0.47;;
47025;SDS011;32783;51.756;-2.556;2023-03-26T14:46:02;1.00;;;0.45;;
47025;SDS011;32783;51.756;-2.556;2023-03-26T14:54:00;1.00;;;0.50;;
47025;SDS011;32783;51.756;-2.556;2023-03-26T15:07:25;0.95;;;0.50;;
47025;SDS011;32783;51.756;-2.556;2023-03-26T15:18:51;1.63;;;0.60;;
47025;SDS011;32783;51.756;-2.556;2023-03-26T15:41:14;1.00;;;0.38;;
47025;SDS011;32783;51.756;-2.556;2023-03-26T15:46:32;1.10;;;0.47;;
47025;SDS011;32783;51.756;-2.556;2023-03-26T15:51:57;1.33;;;0.70;;
47025;SDS011;32783;51.756;-2.556;2023-03-26T15:57:43;1.48;;;0.65;;
47025;SDS011;32783;51.756;-2.556;2023-03-26T16:00:26;1.33;;;0.77;;
47025;SDS011;32783;51.756;-2.556;2023-03-26T16:14:45;1.30;;;0.50;;
47025;SDS011;32783;51.756;-2.556;2023-03-26T16:17:13;1.63;;;0.70;;
47025;SDS011;32783;51.756;-2.556;2023-03-26T16:22:34;1.77;;;0.80;;
47025;SDS011;32783;51.756;-2.556;2023-03-26T16:25:17;0.88;;;0.47;;
47025;SDS011;32783;51.756;-2.556;2023-03-26T16:27:47;1.23;;;0.63;;
47025;SDS011;32783;51.756;-2.556;2023-03-26T16:30:33;0.95;;;0.40;;
47025;SDS011;32783;51.756;-2.556;2023-03-26T16:33:06;1.30;;;0.70;;
47025;SDS011;32783;51.756;-2.556;2023-03-26T16:35:38;1.17;;;0.70;;
47025;SDS011;32783;51.756;-2.556;2023-03-26T16:38:12;1.08;;;0.60;;
47025;SDS011;32783;51.756;-2.556;2023-03-26T16:41:00;2.17;;;1.10;;
47025;SDS011;32783;51.756;-2.556;2023-03-26T16:43:40;0.98;;;0.68;;
47025;SDS011;32783;51.756;-2.556;2023-03-26T16:54:23;1.17;;;0.55;;
47025;SDS011;32783;51.756;-2.556;2023-03-26T16:56:52;1.52;;;0.98;;
47025;SDS011;32783;51.756;-2.556;2023-03-26T16:59:43;1.20;;;0.63;;
47025;SDS011;32783;51.756;-2.556;2023-03-26T17:08:14;2.75;;;1.13;;
47025;SDS011;32783;51.756;-2.556;2023-03-26T17:16:21;2.35;;;0.80;;
47025;SDS011;32783;51.756;-2.556;2023-03-26T17:35:36;1.58;;;0.70;;
47025;SDS011;32783;51.756;-2.556;2023-03-26T17:40:49;1.23;;;0.98;;
47025;SDS011;32783;51.756;-2.556;2023-03-26T17:54:01;2.55;;;1.48;;
47025;SDS011;32783;51.756;-2.556;2023-03-26T17:56:30;5.90;;;1.10;;
47025;SDS011;32783;51.756;-2.556;2023-03-26T17:58:56;1.60;;;0.80;;
47025;SDS011;32783;51.756;-2.556;2023-03-26T18:01:36;3.92;;;1.63;;
47025;SDS011;32783;51.756;-2.556;2023-03-26T18:04:03;3.85;;;1.83;;
47025;SDS011;32783;51.756;-2.556;2023-03-26T18:12:15;3.00;;;2.30;;
47025;SDS011;32783;51.756;-2.556;2023-03-26T18:17:49;3.30;;;1.85;;
47025;SDS011;32783;51.756;-2.556;2023-03-26T18:20:20;3.67;;;1.77;;
47025;SDS011;32783;51.756;-2.556;2023-03-26T18:22:47;3.22;;;2.15;;
47025;SDS011;32783;51.756;-2.556;2023-03-26T18:25:25;2.45;;;1.83;;
47025;SDS011;32783;51.756;-2.556;2023-03-26T18:27:54;3.85;;;1.55;;
47025;SDS011;32783;51.756;-2.556;2023-03-26T18:30:23;2.83;;;1.70;;
47025;SDS011;32783;51.756;-2.556;2023-03-26T18:33:10;3.92;;;1.92;;
47025;SDS011;32783;51.756;-2.556;2023-03-26T18:35:39;4.07;;;1.60;;
47025;SDS011;32783;51.756;-2.556;2023-03-26T18:38:09;3.50;;;1.75;;
47025;SDS011;32783;51.756;-2.556;2023-03-26T18:40:38;3.45;;;1.30;;
47025;SDS011;32783;51.756;-2.556;2023-03-26T18:43:05;4.63;;;1.90;;
47025;SDS011;32783;51.756;-2.556;2023-03-26T18:45:43;2.78;;;1.35;;
47025;SDS011;32783;51.756;-2.556;2023-03-26T18:48:23;4.40;;;2.13;;
47025;SDS011;32783;51.756;-2.556;2023-03-26T18:50:50;2.70;;;1.30;;
47025;SDS011;32783;51.756;-2.556;2023-03-26T18:53:19;3.47;;;1.20;;
47025;SDS011;32783;51.756;-2.556;2023-03-26T18:55:47;3.37;;;1.47;;
47025;SDS011;32783;51.756;-2.556;2023-03-26T18:58:21;5.20;;;1.70;;
47025;SDS011;32783;51.756;-2.556;2023-03-26T19:01:13;3.03;;;1.40;;
47025;SDS011;32783;51.756;-2.556;2023-03-26T19:03:40;2.38;;;1.70;;
47025;SDS011;32783;51.756;-2.556;2023-03-26T19:06:08;3.88;;;1.85;;
47025;SDS011;32783;51.756;-2.556;2023-03-26T19:08:38;3.45;;;1.20;;
47025;SDS011;32783;51.756;-2.556;2023-03-26T19:11:07;3.67;;;1.63;;
47025;SDS011;32783;51.756;-2.556;2023-03-26T19:13:35;2.58;;;1.15;;
47025;SDS011;32783;51.756;-2.556;2023-03-26T19:16:23;2.67;;;1.10;;
47025;SDS011;32783;51.756;-2.556;2023-03-26T19:18:48;1.88;;;1.00;;
47025;SDS011;32783;51.756;-2.556;2023-03-26T19:21:15;2.47;;;1.10;;
47025;SDS011;32783;51.756;-2.556;2023-03-26T19:23:42;2.10;;;1.00;;
47025;SDS011;32783;51.756;-2.556;2023-03-26T19:26:09;2.75;;;1.45;;
47025;SDS011;32783;51.756;-2.556;2023-03-26T19:28:36;3.42;;;1.02;;
47025;SDS011;32783;51.756;-2.556;2023-03-26T19:34:02;1.77;;;1.30;;
47025;SDS011;32783;51.756;-2.556;2023-03-26T19:40:32;3.13;;;1.40;;
47025;SDS011;32783;51.756;-2.556;2023-03-26T19:42:41;2.53;;;1.10;;
47025;SDS011;32783;51.756;-2.556;2023-03-26T19:45:09;2.72;;;0.90;;
47025;SDS011;32783;51.756;-2.556;2023-03-26T19:47:39;3.80;;;1.15;;
47025;SDS011;32783;51.756;-2.556;2023-03-26T19:50:13;2.28;;;1.17;;
47025;SDS011;32783;51.756;-2.556;2023-03-26T19:56:31;3.92;;;1.10;;
47025;SDS011;32783;51.756;-2.556;2023-03-26T19:58:32;3.00;;;1.25;;
47025;SDS011;32783;51.756;-2.556;2023-03-26T20:00:59;1.63;;;1.00;;
47025;SDS011;32783;51.756;-2.556;2023-03-26T20:03:28;2.17;;;0.98;;
47025;SDS011;32783;51.756;-2.556;2023-03-26T20:06:04;1.67;;;0.90;;
47025;SDS011;32783;51.756;-2.556;2023-03-26T20:08:31;3.60;;;1.13;;
47025;SDS011;32783;51.756;-2.556;2023-03-26T20:10:56;1.55;;;0.75;;
47025;SDS011;32783;51.756;-2.556;2023-03-26T20:13:22;3.65;;;1.00;;
47025;SDS011;32783;51.756;-2.556;2023-03-26T20:15:52;2.53;;;0.98;;
47025;SDS011;32783;51.756;-2.556;2023-03-26T20:18:36;2.65;;;0.90;;
47025;SDS011;32783;51.756;-2.556;2023-03-26T20:21:07;2.83;;;1.08;;
47025;SDS011;32783;51.756;-2.556;2023-03-26T20:23:34;3.45;;;1.67;;
47025;SDS011;32783;51.756;-2.556;2023-03-26T20:25:59;2.65;;;1.20;;
47025;SDS011;32783;51.756;-2.556;2023-03-26T20:28:25;4.03;;;1.23;;
47025;SDS011;32783;51.756;-2.556;2023-03-26T20:30:50;2.42;;;1.05;;
47025;SDS011;32783;51.756;-2.556;2023-03-26T20:33:22;3.38;;;0.90;;
47025;SDS011;32783;51.756;-2.556;2023-03-26T20:35:55;2.08;;;0.88;;
47025;SDS011;32783;51.756;-2.556;2023-03-26T20:38:21;1.45;;;0.90;;
47025;SDS011;32783;51.756;-2.556;2023-03-26T20:40:49;2.30;;;1.00;;
47025;SDS011;32783;51.756;-2.556;2023-03-26T20:43:16;4.68;;;0.90;;
47025;SDS011;32783;51.756;-2.556;2023-03-26T20:45:43;2.05;;;1.05;;
47025;SDS011;32783;51.756;-2.556;2023-03-26T20:48:09;2.63;;;1.00;;
47025;SDS011;32783;51.756;-2.556;2023-03-26T20:50:36;0.93;;;0.65;;
47025;SDS011;32783;51.756;-2.556;2023-03-26T20:53:05;1.60;;;0.80;;
47025;SDS011;32783;51.756;-2.556;2023-03-26T20:55:31;2.38;;;0.80;;
47025;SDS011;32783;51.756;-2.556;2023-03-26T20:57:56;1.70;;;1.10;;
47025;SDS011;32783;51.756;-2.556;2023-03-26T21:00:22;1.58;;;0.70;;
47025;SDS011;32783;51.756;-2.556;2023-03-26T21:02:51;1.20;;;0.70;;
47025;SDS011;32783;51.756;-2.556;2023-03-26T21:05:22;2.30;;;1.05;;
47025;SDS011;32783;51.756;-2.556;2023-03-26T21:07:50;2.38;;;1.80;;
47025;SDS011;32783;51.756;-2.556;2023-03-26T21:10:17;1.42;;;0.60;;
47025;SDS011;32783;51.756;-2.556;2023-03-26T21:15:22;1.55;;;1.00;;
47025;SDS011;32783;51.756;-2.556;2023-03-26T21:17:48;1.50;;;1.05;;
47025;SDS011;32783;51.756;-2.556;2023-03-26T21:20:16;1.95;;;1.00;;